Time;durP1;ratioP1;P1;durP2;ratioP2;P2;SDS_P1;SDS_P2;PMS_P1;PMS_P2;Temp;Humidity;BMP_temperature;BMP_pressure;BME280_temperature;BME280_humidity;BME280_pressure;Samples;Min_cycle;Max_cycle;Signal;HPM_P1;HPM_P2
2023/04/09 00:00:45;;;;;;;1.65;1.00;;;24.30;44.10;;;;;;5039361;28;20047;-59
2023/04/09 00:03:11;;;;;;;1.80;1.13;;;24.30;44.10;;;;;;5038096;28;20030;-62
2023/04/09 00:05:40;;;;;;;1.30;1.00;;;24.30;44.10;;;;;;5039191;28;20017;-60
2023/04/09 00:08:06;;;;;;;1.42;0.90;;;24.30;44.60;;;;;;5041660;28;20477;-62
2023/04/09 00:10:32;;;;;;;1.88;1.00;;;24.30;44.60;;;;;;5041039;28;20025;-62
2023/04/09 00:12:57;;;;;;;2.22;1.17;;;24.30;44.10;;;;;;5041754;28;20040;-62
2023/04/09 00:15:23;;;;;;;2.08;1.27;;;24.30;44.10;;;;;;5042772;28;20477;-62
2023/04/09 00:17:49;;;;;;;3.40;1.23;;;24.30;44.10;;;;;;5043614;28;20029;-62
2023/04/09 00:20:14;;;;;;;1.60;1.00;;;24.30;44.10;;;;;;5042965;28;20041;-62
2023/04/09 00:22:40;;;;;;;2.47;1.20;;;24.30;44.00;;;;;;5044045;28;20036;-62
2023/04/09 00:25:06;;;;;;;1.35;1.00;;;24.30;44.00;;;;;;5038512;28;20160;-60
2023/04/09 00:27:32;;;;;;;1.30;0.90;;;24.30;44.00;;;;;;5041150;28;20029;-62
2023/04/09 00:29:57;;;;;;;2.25;1.02;;;24.30;44.50;;;;;;5043151;28;20128;-62
2023/04/09 00:32:23;;;;;;;1.92;1.13;;;24.30;44.00;;;;;;5041975;28;20486;-62
2023/04/09 00:34:49;;;;;;;2.60;1.27;;;24.40;44.10;;;;;;5040955;28;20044;-62
2023/04/09 00:37:15;;;;;;;2.35;1.20;;;24.30;44.00;;;;;;5040759;28;20497;-62
2023/04/09 00:39:41;;;;;;;1.30;1.00;;;24.40;44.00;;;;;;5042090;28;20396;-62
2023/04/09 00:42:06;;;;;;;2.25;1.00;;;24.40;44.00;;;;;;5041259;28;20017;-62
2023/04/09 00:44:32;;;;;;;1.63;1.10;;;24.40;44.10;;;;;;5039739;28;20108;-62
2023/04/09 00:46:59;;;;;;;1.90;0.90;;;24.40;44.00;;;;;;5041371;28;20037;-60
2023/04/09 00:49:25;;;;;;;1.88;0.90;;;24.40;44.00;;;;;;5042216;28;20497;-62
2023/04/09 00:51:51;;;;;;;2.13;1.00;;;24.40;44.00;;;;;;5041559;28;20037;-60
2023/04/09 00:54:17;;;;;;;1.98;1.02;;;24.40;43.90;;;;;;5037993;28;20485;-63
2023/04/09 00:56:44;;;;;;;2.30;1.02;;;24.40;43.90;;;;;;5039176;28;20465;-62
2023/04/09 00:59:10;;;;;;;1.77;1.00;;;24.40;43.90;;;;;;5037367;28;20044;-61
2023/04/09 01:01:36;;;;;;;2.00;1.00;;;24.40;44.00;;;;;;5042121;28;20041;-62
2023/04/09 01:04:01;;;;;;;1.55;1.00;;;24.40;44.00;;;;;;5041655;28;20075;-62
2023/04/09 01:06:34;;;;;;;1.13;0.85;;;24.40;43.90;;;;;;5039031;28;20025;-62
2023/04/09 01:09:12;;;;;;;1.75;1.00;;;24.40;43.90;;;;;;5041104;28;20067;-62
2023/04/09 01:11:51;;;;;;;1.20;0.90;;;24.40;44.00;;;;;;5038134;28;20500;-62
2023/04/09 01:14:26;;;;;;;1.70;0.90;;;24.40;43.90;;;;;;5039404;28;20033;-61
2023/04/09 01:16:58;;;;;;;1.58;1.00;;;24.40;44.00;;;;;;5040745;28;20108;-62
2023/04/09 01:19:55;;;;;;;3.05;1.10;;;24.40;43.90;;;;;;5039649;28;20032;-61
2023/04/09 01:22:39;;;;;;;3.22;1.27;;;24.40;43.90;;;;;;5044174;28;20021;-61
2023/04/09 01:25:27;;;;;;;1.30;1.00;;;24.40;43.80;;;;;;5037191;28;20484;-61
2023/04/09 01:28:11;;;;;;;1.90;1.10;;;24.40;43.80;;;;;;5041982;28;20053;-62
2023/04/09 01:30:41;;;;;;;1.83;1.10;;;24.50;43.80;;;;;;5036951;28;20026;-61
2023/04/09 01:33:10;;;;;;;1.75;1.05;;;24.40;43.80;;;;;;5040839;28;20029;-61
2023/04/09 01:35:36;;;;;;;1.83;0.80;;;24.40;43.80;;;;;;5038275;28;20101;-59
2023/04/09 01:38:02;;;;;;;1.65;1.00;;;24.40;43.80;;;;;;5041480;28;20033;-60
2023/04/09 01:40:29;;;;;;;1.00;0.88;;;24.40;43.80;;;;;;5040511;28;20021;-59
2023/04/09 01:42:56;;;;;;;1.45;1.00;;;24.40;43.80;;;;;;5038089;28;20030;-59
2023/04/09 01:45:22;;;;;;;1.17;0.82;;;24.40;43.90;;;;;;5039687;28;20025;-60
2023/04/09 01:47:48;;;;;;;1.17;0.80;;;24.30;43.90;;;;;;5040513;28;20098;-60
2023/04/09 01:50:14;;;;;;;1.58;0.93;;;24.30;43.90;;;;;;5040690;28;20068;-60
2023/04/09 01:52:40;;;;;;;1.33;0.90;;;24.30;43.90;;;;;;5040047;28;20139;-60
2023/04/09 01:55:06;;;;;;;1.02;0.93;;;24.30;44.50;;;;;;5039826;28;20134;-60
2023/04/09 01:57:31;;;;;;;1.63;1.10;;;24.30;44.00;;;;;;5041563;28;20377;-60
2023/04/09 01:59:57;;;;;;;1.70;1.00;;;24.30;44.00;;;;;;5037772;28;20025;-60
2023/04/09 02:02:34;;;;;;;1.17;0.98;;;24.20;43.90;;;;;;5038352;28;20028;-59
2023/04/09 02:05:04;;;;;;;1.40;1.00;;;24.20;43.90;;;;;;5040106;28;20485;-60
2023/04/09 02:07:46;;;;;;;1.42;1.00;;;24.20;44.00;;;;;;5038812;28;20041;-60
2023/04/09 02:10:16;;;;;;;2.03;1.10;;;24.20;44.00;;;;;;5035732;28;20056;-60
2023/04/09 02:12:47;;;;;;;1.15;0.90;;;24.10;44.00;;;;;;5041207;28;20036;-60
2023/04/09 02:15:14;;;;;;;1.15;0.88;;;24.10;44.00;;;;;;5040106;28;20380;-60
2023/04/09 02:17:40;;;;;;;1.40;0.90;;;24.10;44.00;;;;;;5038624;28;20493;-60
2023/04/09 02:20:07;;;;;;;1.58;1.00;;;24.10;44.00;;;;;;5039807;28;20030;-60
2023/04/09 02:22:32;;;;;;;1.63;1.00;;;24.00;44.00;;;;;;5038803;28;20029;-60
2023/04/09 02:24:58;;;;;;;1.30;1.00;;;24.00;44.00;;;;;;5040489;28;20078;-60
2023/04/09 02:27:23;;;;;;;1.98;1.00;;;24.00;44.00;;;;;;5035823;28;20587;-60
2023/04/09 02:29:49;;;;;;;1.27;0.93;;;24.00;44.10;;;;;;5040454;28;20040;-60
2023/04/09 02:32:15;;;;;;;2.20;1.00;;;24.00;44.10;;;;;;5040593;28;20453;-59
2023/04/09 02:34:41;;;;;;;1.45;1.08;;;24.00;44.10;;;;;;5038974;28;20036;-60
2023/04/09 02:37:06;;;;;;;1.00;0.90;;;23.90;44.10;;;;;;5039830;28;20021;-58
2023/04/09 02:39:32;;;;;;;1.48;1.08;;;23.90;44.10;;;;;;5038228;28;20028;-59
2023/04/09 02:41:58;;;;;;;1.65;0.90;;;23.90;44.10;;;;;;5039970;28;20038;-60
2023/04/09 02:44:23;;;;;;;1.70;1.00;;;23.90;44.20;;;;;;5038581;28;20025;-60
2023/04/09 02:46:51;;;;;;;1.00;0.88;;;23.80;44.20;;;;;;5038198;28;20488;-59
2023/04/09 02:49:16;;;;;;;1.02;0.90;;;23.80;44.20;;;;;;5036806;28;20453;-60
2023/04/09 02:51:42;;;;;;;1.35;0.90;;;23.80;44.20;;;;;;5035181;28;20037;-60
2023/04/09 02:54:08;;;;;;;1.88;1.10;;;23.80;44.20;;;;;;5035972;28;20490;-59
2023/04/09 02:56:33;;;;;;;1.17;0.80;;;23.80;44.30;;;;;;5033958;28;20061;-60
2023/04/09 02:58:59;;;;;;;1.30;0.90;;;23.70;44.20;;;;;;5037983;28;20037;-60
2023/04/09 03:01:25;;;;;;;1.48;0.90;;;23.70;44.20;;;;;;5039348;28;20028;-59
2023/04/09 03:03:51;;;;;;;2.08;1.00;;;23.70;44.30;;;;;;5037410;28;20100;-60
2023/04/09 03:06:17;;;;;;;1.42;1.00;;;23.70;44.30;;;;;;5035144;28;20037;-59
2023/04/09 03:08:43;;;;;;;0.98;0.80;;;23.70;44.30;;;;;;5035813;28;20076;-60
2023/04/09 03:11:08;;;;;;;1.40;1.00;;;23.60;44.30;;;;;;5038686;28;20040;-59
2023/04/09 03:13:34;;;;;;;1.30;1.00;;;23.60;44.40;;;;;;5040091;28;20108;-60
2023/04/09 03:15:59;;;;;;;1.33;0.88;;;23.60;44.40;;;;;;5037036;28;20057;-60
2023/04/09 03:18:25;;;;;;;1.48;0.95;;;23.60;44.40;;;;;;5037741;28;20026;-60
2023/04/09 03:20:51;;;;;;;1.02;0.88;;;23.50;44.30;;;;;;5037058;28;20080;-59
2023/04/09 03:23:16;;;;;;;1.98;0.95;;;23.50;44.40;;;;;;5039397;28;20500;-60
2023/04/09 03:25:42;;;;;;;1.80;0.90;;;23.50;44.40;;;;;;5036124;28;20025;-60
2023/04/09 03:28:08;;;;;;;1.15;0.90;;;23.50;44.40;;;;;;5037449;28;20092;-60
2023/04/09 03:30:33;;;;;;;1.30;0.80;;;23.50;44.50;;;;;;5043276;28;20436;-60
2023/04/09 03:32:59;;;;;;;0.90;0.80;;;23.50;44.50;;;;;;5041095;28;20032;-60
2023/04/09 03:35:25;;;;;;;1.20;0.90;;;23.40;44.60;;;;;;5037578;28;20129;-60
2023/04/09 03:37:51;;;;;;;1.60;0.90;;;23.40;44.50;;;;;;5038318;28;20113;-60
2023/04/09 03:40:16;;;;;;;1.67;1.05;;;23.40;44.60;;;;;;5041956;28;20022;-60
2023/04/09 03:42:43;;;;;;;1.27;0.80;;;23.40;45.10;;;;;;5039117;28;20539;-60
2023/04/09 03:45:08;;;;;;;1.63;1.00;;;23.40;44.60;;;;;;5041610;28;20033;-59
2023/04/09 03:47:34;;;;;;;1.17;0.80;;;23.40;44.60;;;;;;5042226;28;20086;-60
2023/04/09 03:50:00;;;;;;;1.27;1.00;;;23.30;44.60;;;;;;5042293;28;20370;-62
2023/04/09 03:52:25;;;;;;;0.70;0.70;;;23.30;44.70;;;;;;5041397;28;20116;-60
2023/04/09 03:54:51;;;;;;;1.33;0.90;;;23.30;45.20;;;;;;5038900;28;20411;-60
2023/04/09 03:57:16;;;;;;;1.08;0.82;;;23.20;44.60;;;;;;5040306;28;20080;-60
2023/04/09 03:59:42;;;;;;;1.02;0.80;;;23.30;44.80;;;;;;5042601;28;20536;-61
2023/04/09 04:02:08;;;;;;;0.98;0.80;;;23.20;44.70;;;;;;5043367;28;20021;-60
2023/04/09 04:04:33;;;;;;;0.77;0.73;;;23.20;44.70;;;;;;5042639;28;20057;-60
2023/04/09 04:06:59;;;;;;;1.00;0.90;;;23.20;45.20;;;;;;5042434;28;20059;-62
2023/04/09 04:09:25;;;;;;;0.93;0.80;;;23.20;44.80;;;;;;5042297;28;20026;-60
2023/04/09 04:11:50;;;;;;;1.13;0.90;;;23.20;44.80;;;;;;5043769;28;20032;-60
2023/04/09 04:14:16;;;;;;;2.20;1.00;;;23.20;44.80;;;;;;5043238;28;20043;-60
2023/04/09 04:16:42;;;;;;;0.90;0.77;;;23.20;44.90;;;;;;5042004;28;20455;-60
2023/04/09 04:19:07;;;;;;;1.23;0.90;;;23.10;44.80;;;;;;5039429;28;20029;-60
2023/04/09 04:21:33;;;;;;;0.80;0.70;;;23.10;44.80;;;;;;5040254;28;20033;-60
2023/04/09 04:23:58;;;;;;;0.80;0.73;;;23.10;44.80;;;;;;5044603;28;20033;-60
2023/04/09 04:26:24;;;;;;;1.25;0.90;;;23.10;44.90;;;;;;5042387;28;20553;-60
2023/04/09 04:28:49;;;;;;;1.10;0.80;;;23.10;44.90;;;;;;5038923;28;20472;-60
2023/04/09 04:31:15;;;;;;;1.30;0.90;;;23.00;44.90;;;;;;5040546;28;20037;-60
2023/04/09 04:33:41;;;;;;;0.88;0.75;;;23.00;44.90;;;;;;5043441;28;20107;-60
2023/04/09 04:36:09;;;;;;;1.40;0.80;;;23.00;45.40;;;;;;5044034;28;20040;-59
2023/04/09 04:38:35;;;;;;;0.85;0.80;;;23.00;44.90;;;;;;5041778;28;20484;-61
2023/04/09 04:41:01;;;;;;;0.80;0.70;;;23.00;44.90;;;;;;5043443;28;20102;-60
2023/04/09 04:43:27;;;;;;;0.90;0.70;;;23.00;44.90;;;;;;5041509;28;20082;-60
2023/04/09 04:45:53;;;;;;;0.90;0.70;;;23.00;44.90;;;;;;5042048;28;20494;-61
2023/04/09 04:48:19;;;;;;;1.02;0.73;;;23.00;45.00;;;;;;5042615;28;20024;-58
2023/04/09 04:50:45;;;;;;;0.90;0.80;;;22.90;45.00;;;;;;5039091;28;20040;-60
2023/04/09 04:53:10;;;;;;;0.80;0.80;;;23.00;45.00;;;;;;5041351;28;20033;-61
2023/04/09 04:55:38;;;;;;;1.27;0.90;;;22.90;45.00;;;;;;5040912;28;20214;-60
2023/04/09 04:58:04;;;;;;;1.05;0.85;;;22.90;45.00;;;;;;5037543;28;20508;-60
2023/04/09 05:00:30;;;;;;;0.95;0.80;;;22.90;45.00;;;;;;5042547;28;20029;-60
2023/04/09 05:02:56;;;;;;;1.40;0.90;;;22.90;45.00;;;;;;5040685;28;20025;-60
2023/04/09 05:05:22;;;;;;;0.90;0.80;;;22.90;45.00;;;;;;5040360;28;20035;-60
2023/04/09 05:07:47;;;;;;;0.90;0.77;;;22.90;45.00;;;;;;5036731;28;20056;-60
2023/04/09 05:10:13;;;;;;;0.73;0.73;;;22.90;45.00;;;;;;5039816;28;20484;-60
2023/04/09 05:12:38;;;;;;;0.90;0.80;;;22.90;45.00;;;;;;5039984;28;20052;-60
2023/04/09 05:15:05;;;;;;;0.60;0.60;;;22.90;45.00;;;;;;5042842;28;20568;-60
2023/04/09 05:17:31;;;;;;;1.52;0.90;;;22.90;45.30;;;;;;5040417;28;20057;-60
2023/04/09 05:19:57;;;;;;;0.82;0.65;;;22.90;45.00;;;;;;5041753;28;20122;-60
2023/04/09 05:22:22;;;;;;;0.80;0.80;;;22.80;45.00;;;;;;5040204;28;20033;-60
2023/04/09 05:24:48;;;;;;;1.02;0.80;;;22.80;45.00;;;;;;5041796;28;20495;-61
2023/04/09 05:27:14;;;;;;;0.60;0.60;;;22.80;45.00;;;;;;5042135;28;20061;-60
2023/04/09 05:29:40;;;;;;;0.88;0.70;;;22.80;45.00;;;;;;5040377;28;20028;-61
2023/04/09 05:32:08;;;;;;;0.90;0.70;;;22.80;45.00;;;;;;5040212;28;20032;-60
2023/04/09 05:34:33;;;;;;;0.90;0.80;;;22.80;45.00;;;;;;5040899;28;20064;-60
2023/04/09 05:36:59;;;;;;;1.02;0.77;;;22.80;45.10;;;;;;5038311;28;20126;-60
2023/04/09 05:39:25;;;;;;;1.00;0.80;;;22.70;45.00;;;;;;5039843;28;20029;-60
2023/04/09 05:41:51;;;;;;;0.98;0.70;;;22.80;45.10;;;;;;5047850;28;20045;-59
2023/04/09 05:44:17;;;;;;;1.05;0.75;;;22.80;45.10;;;;;;5040427;28;20059;-61
2023/04/09 05:46:42;;;;;;;1.55;0.85;;;22.70;45.10;;;;;;5041720;28;20044;-60
2023/04/09 05:49:08;;;;;;;1.20;0.90;;;22.80;45.10;;;;;;5041359;28;20041;-61
2023/04/09 05:51:34;;;;;;;1.17;0.80;;;22.70;45.00;;;;;;5038404;28;20037;-61
2023/04/09 05:54:00;;;;;;;1.15;0.80;;;22.70;45.00;;;;;;5043358;28;20025;-60
2023/04/09 05:56:26;;;;;;;1.10;0.90;;;22.70;45.10;;;;;;5038308;28;20390;-60
2023/04/09 05:58:52;;;;;;;1.00;0.88;;;22.70;45.10;;;;;;5034787;28;20037;-60
2023/04/09 06:01:18;;;;;;;1.25;0.80;;;22.70;45.10;;;;;;5038216;28;20543;-60
2023/04/09 06:03:44;;;;;;;1.13;0.85;;;22.70;45.10;;;;;;5039156;28;20440;-60
2023/04/09 06:06:09;;;;;;;1.50;0.90;;;22.70;45.10;;;;;;5040868;28;20096;-61
2023/04/09 06:08:35;;;;;;;0.90;0.80;;;22.70;45.10;;;;;;5039420;28;20020;-60
2023/04/09 06:11:01;;;;;;;0.85;0.80;;;22.70;45.10;;;;;;5037279;28;20022;-60
2023/04/09 06:13:26;;;;;;;1.30;1.00;;;22.70;45.10;;;;;;5037399;28;20025;-60
2023/04/09 06:15:52;;;;;;;1.30;0.80;;;22.70;45.10;;;;;;5036772;28;20037;-60
2023/04/09 06:18:17;;;;;;;1.10;0.90;;;22.70;45.10;;;;;;5044850;28;20083;-60
2023/04/09 06:20:43;;;;;;;0.70;0.70;;;22.70;45.10;;;;;;5041748;28;20034;-60
2023/04/09 06:23:09;;;;;;;1.30;0.90;;;22.60;45.10;;;;;;5051610;28;20108;-61
2023/04/09 06:25:35;;;;;;;1.35;0.90;;;22.60;45.10;;;;;;5039325;28;20026;-61
2023/04/09 06:28:01;;;;;;;1.23;1.00;;;22.60;45.10;;;;;;5041606;28;20052;-60
2023/04/09 06:30:28;;;;;;;1.25;0.90;;;22.60;45.10;;;;;;5042994;28;20029;-60
2023/04/09 06:32:53;;;;;;;1.20;0.95;;;22.60;45.10;;;;;;5038015;28;20034;-60
2023/04/09 06:35:19;;;;;;;1.17;0.90;;;22.60;45.10;;;;;;5040245;28;20119;-60
2023/04/09 06:37:44;;;;;;;1.08;0.90;;;22.60;45.10;;;;;;5041799;28;20384;-60
2023/04/09 06:40:11;;;;;;;0.95;0.70;;;22.60;45.10;;;;;;5040739;28;20021;-60
2023/04/09 06:42:36;;;;;;;1.48;0.90;;;22.60;45.20;;;;;;5040160;28;20048;-61
2023/04/09 06:45:07;;;;;;;0.90;0.70;;;22.60;45.20;;;;;;5046675;28;20025;-60
2023/04/09 06:47:35;;;;;;;0.88;0.80;;;22.60;45.20;;;;;;5041350;28;20495;-60
2023/04/09 06:50:01;;;;;;;0.83;0.80;;;22.60;45.20;;;;;;5040579;28;20025;-61
2023/04/09 06:52:26;;;;;;;1.10;0.80;;;22.60;45.20;;;;;;5044236;28;20078;-61
2023/04/09 06:54:52;;;;;;;0.80;0.77;;;22.60;45.20;;;;;;5039298;28;20039;-61
2023/04/09 06:57:18;;;;;;;1.40;1.00;;;22.60;45.20;;;;;;5041597;28;20020;-61
2023/04/09 06:59:43;;;;;;;1.10;0.90;;;22.60;45.20;;;;;;5037778;28;20388;-60
2023/04/09 07:02:09;;;;;;;1.73;0.93;;;22.60;45.20;;;;;;5038943;28;20044;-60
2023/04/09 07:04:35;;;;;;;1.08;0.90;;;22.60;45.30;;;;;;5039997;28;20056;-61
2023/04/09 07:07:00;;;;;;;0.95;0.80;;;22.60;45.30;;;;;;5038583;28;20036;-61
2023/04/09 07:09:26;;;;;;;1.05;0.80;;;22.60;45.30;;;;;;5034744;28;20104;-61
2023/04/09 07:11:52;;;;;;;0.75;0.70;;;22.60;45.30;;;;;;5038731;28;20033;-61
2023/04/09 07:14:17;;;;;;;1.42;0.98;;;22.60;45.40;;;;;;5037013;28;20057;-61
2023/04/09 07:16:45;;;;;;;0.95;0.70;;;22.60;45.40;;;;;;5042676;28;20489;-60
2023/04/09 07:19:11;;;;;;;1.13;0.80;;;22.60;45.40;;;;;;5040972;28;20105;-60
2023/04/09 07:21:36;;;;;;;1.05;0.80;;;22.60;45.40;;;;;;5043318;28;20461;-60
2023/04/09 07:24:02;;;;;;;1.08;0.80;;;22.60;45.40;;;;;;5042605;28;20021;-60
2023/04/09 07:26:29;;;;;;;1.40;0.80;;;22.60;45.50;;;;;;5043906;28;20032;-60
2023/04/09 07:28:55;;;;;;;1.30;0.90;;;22.50;45.40;;;;;;5041887;28;20029;-60
2023/04/09 07:31:21;;;;;;;1.27;0.90;;;22.50;45.50;;;;;;5042591;28;20117;-60
2023/04/09 07:33:46;;;;;;;1.00;0.75;;;22.50;45.50;;;;;;5045659;28;20473;-59
2023/04/09 07:36:12;;;;;;;1.05;0.90;;;22.60;45.60;;;;;;5040394;28;20108;-61
2023/04/09 07:38:38;;;;;;;1.30;0.90;;;22.50;45.60;;;;;;5042825;28;20037;-60
2023/04/09 07:41:03;;;;;;;1.23;0.88;;;22.50;45.60;;;;;;5042865;28;20036;-61
2023/04/09 07:43:30;;;;;;;1.27;0.90;;;22.50;45.60;;;;;;5039352;28;20029;-61
2023/04/09 07:45:56;;;;;;;1.05;0.77;;;22.50;45.70;;;;;;5042860;28;20032;-61
2023/04/09 07:48:22;;;;;;;1.02;0.80;;;22.50;45.70;;;;;;5039113;28;20108;-61
2023/04/09 07:50:47;;;;;;;1.00;0.85;;;22.50;45.70;;;;;;5043013;28;20028;-61
2023/04/09 07:53:13;;;;;;;0.98;0.80;;;22.50;45.70;;;;;;5041677;28;20025;-60
2023/04/09 07:55:39;;;;;;;1.15;0.90;;;22.50;45.70;;;;;;5040313;28;20052;-61
2023/04/09 07:58:05;;;;;;;0.82;0.70;;;22.50;45.70;;;;;;5041106;28;20112;-60
2023/04/09 08:00:31;;;;;;;1.15;1.05;;;22.50;45.70;;;;;;5045386;28;20033;-61
2023/04/09 08:02:57;;;;;;;1.10;0.73;;;22.50;45.70;;;;;;5044317;28;20040;-60
2023/04/09 08:05:23;;;;;;;1.33;0.90;;;22.50;45.80;;;;;;5043412;28;20449;-61
2023/04/09 08:07:52;;;;;;;0.80;0.70;;;22.50;45.80;;;;;;5042838;28;20033;-61
2023/04/09 08:10:18;;;;;;;1.52;0.90;;;22.50;45.80;;;;;;5044232;28;20457;-62
2023/04/09 08:12:43;;;;;;;1.77;0.90;;;22.50;45.80;;;;;;5046132;28;20032;-61
2023/04/09 08:15:09;;;;;;;1.33;0.80;;;22.50;45.80;;;;;;5039354;28;20033;-61
2023/04/09 08:17:38;;;;;;;1.67;0.93;;;22.50;45.90;;;;;;5042262;28;20566;-61
2023/04/09 08:20:05;;;;;;;1.25;0.93;;;22.50;45.90;;;;;;5040621;28;20477;-61
2023/04/09 08:22:30;;;;;;;1.42;0.90;;;22.50;45.80;;;;;;5042381;28;20043;-61
2023/04/09 08:24:57;;;;;;;1.20;1.00;;;22.40;45.80;;;;;;5041887;28;20119;-61
2023/04/09 08:27:23;;;;;;;1.02;0.90;;;22.50;45.90;;;;;;5040514;28;20413;-60
2023/04/09 08:29:48;;;;;;;1.48;1.00;;;22.50;45.90;;;;;;5038865;28;20030;-61
2023/04/09 08:32:14;;;;;;;1.35;1.05;;;22.50;45.90;;;;;;5039100;28;20346;-61
2023/04/09 08:34:40;;;;;;;1.45;0.95;;;22.40;45.80;;;;;;5040487;28;20147;-61
2023/04/09 08:37:06;;;;;;;1.40;1.10;;;22.40;45.80;;;;;;5041693;28;20064;-61
2023/04/09 08:39:32;;;;;;;2.00;1.40;;;22.40;45.80;;;;;;5039659;28;20030;-61
2023/04/09 08:42:00;;;;;;;2.67;1.77;;;22.40;45.80;;;;;;5039101;28;20033;-60
2023/04/09 08:44:26;;;;;;;5.87;3.10;;;22.40;45.90;;;;;;5040328;28;20030;-61
2023/04/09 08:46:52;;;;;;;5.18;3.58;;;22.40;45.80;;;;;;5040966;28;20255;-61
2023/04/09 08:49:18;;;;;;;6.47;4.53;;;22.40;45.80;;;;;;5040372;28;20017;-61
2023/04/09 08:51:48;;;;;;;6.57;4.90;;;22.40;45.80;;;;;;5047197;28;20405;-60
2023/04/09 08:54:16;;;;;;;8.30;5.93;;;22.40;45.90;;;;;;5041930;28;20533;-60
2023/04/09 08:56:41;;;;;;;8.45;7.10;;;22.40;45.80;;;;;;5039736;28;20025;-60
2023/04/09 08:59:08;;;;;;;10.20;7.47;;;22.40;45.80;;;;;;5040308;28;20025;-60
2023/04/09 09:01:33;;;;;;;9.35;7.75;;;22.40;45.90;;;;;;5039061;28;20025;-60
2023/04/09 09:04:04;;;;;;;9.50;7.90;;;22.40;45.90;;;;;;5040573;28;20133;-61
2023/04/09 09:06:35;;;;;;;11.35;8.98;;;22.40;45.80;;;;;;5042098;28;20028;-61
2023/04/09 09:09:08;;;;;;;12.75;9.05;;;22.40;45.90;;;;;;5037073;28;20112;-61
2023/04/09 09:11:35;;;;;;;11.40;9.35;;;22.40;45.90;;;;;;5035086;28;20307;-60
2023/04/09 09:14:07;;;;;;;12.30;9.82;;;22.40;45.90;;;;;;5040898;28;20040;-60
2023/04/09 09:16:41;;;;;;;13.00;10.23;;;22.40;45.80;;;;;;5040451;28;20029;-60
2023/04/09 09:19:08;;;;;;;13.45;10.55;;;22.40;45.80;;;;;;5040353;28;20025;-60
2023/04/09 09:21:35;;;;;;;13.07;9.77;;;22.30;45.80;;;;;;5042379;28;20037;-60
2023/04/09 09:24:01;;;;;;;13.30;10.30;;;22.30;45.70;;;;;;5040500;28;20121;-60
2023/04/09 09:26:28;;;;;;;12.88;10.60;;;22.40;45.80;;;;;;5040986;28;20040;-60
2023/04/09 09:28:57;;;;;;;13.70;10.63;;;22.30;45.70;;;;;;5040074;28;20626;-60
2023/04/09 09:31:24;;;;;;;12.68;10.18;;;22.30;45.70;;;;;;5036928;28;20032;-60
2023/04/09 09:33:50;;;;;;;14.00;10.63;;;22.40;45.70;;;;;;5037569;28;20493;-60
2023/04/09 09:36:30;;;;;;;12.05;10.20;;;22.30;45.60;;;;;;5038963;28;20416;-59
2023/04/09 09:38:58;;;;;;;12.07;9.85;;;22.30;45.60;;;;;;5034400;28;20029;-60
2023/04/09 09:41:24;;;;;;;12.45;10.07;;;22.30;45.50;;;;;;5043224;28;20062;-60
2023/04/09 09:43:51;;;;;;;11.30;9.73;;;22.40;45.50;;;;;;5044087;28;20040;-60
2023/04/09 09:46:17;;;;;;;11.57;9.20;;;22.30;45.40;;;;;;5039232;28;20032;-60
2023/04/09 09:48:48;;;;;;;11.50;9.15;;;22.30;45.40;;;;;;5037770;28;20107;-60
2023/04/09 09:51:15;;;;;;;11.32;8.85;;;22.30;45.50;;;;;;5038153;28;20474;-60
2023/04/09 09:53:44;;;;;;;11.45;8.98;;;22.30;45.50;;;;;;5039774;28;20041;-60
2023/04/09 09:56:20;;;;;;;10.15;8.88;;;22.30;45.50;;;;;;5040072;28;20038;-59
2023/04/09 09:58:58;;;;;;;11.65;8.30;;;22.30;45.50;;;;;;5036623;28;20032;-60
2023/04/09 10:01:26;;;;;;;10.88;8.77;;;22.30;45.50;;;;;;5039075;28;20052;-60
2023/04/09 10:03:54;;;;;;;10.63;8.32;;;22.30;45.50;;;;;;5039135;28;20358;-60
2023/04/09 10:06:20;;;;;;;11.13;8.18;;;22.30;45.50;;;;;;5037668;28;20025;-60
2023/04/09 10:08:48;;;;;;;10.38;7.68;;;22.30;45.50;;;;;;5040181;28;20428;-60
2023/04/09 10:11:13;;;;;;;8.75;7.20;;;22.30;45.40;;;;;;5037918;28;20037;-60
2023/04/09 10:13:54;;;;;;;8.63;6.90;;;22.30;45.40;;;;;;5042487;28;20489;-61
2023/04/09 10:16:21;;;;;;;8.15;6.55;;;22.30;45.30;;;;;;5036013;28;20048;-61
2023/04/09 10:18:47;;;;;;;8.02;6.20;;;22.30;45.30;;;;;;5038838;28;20528;-60
2023/04/09 10:21:27;;;;;;;7.78;6.13;;;22.30;45.20;;;;;;5036711;28;20030;-61
2023/04/09 10:23:54;;;;;;;8.27;6.00;;;22.30;45.30;;;;;;5039816;28;20504;-61
2023/04/09 10:26:20;;;;;;;7.07;5.60;;;22.30;45.30;;;;;;5038599;28;20086;-61
2023/04/09 10:29:02;;;;;;;8.35;6.45;;;22.30;45.40;;;;;;5039179;28;20569;-61
2023/04/09 10:31:43;;;;;;;7.90;6.10;;;22.30;45.40;;;;;;5036664;28;20151;-61
2023/04/09 10:34:09;;;;;;;7.68;6.05;;;22.40;45.50;;;;;;5039710;28;20505;-61
2023/04/09 10:36:35;;;;;;;8.57;6.30;;;22.30;45.50;;;;;;5040790;28;20036;-60
2023/04/09 10:39:13;;;;;;;7.20;5.68;;;22.30;45.50;;;;;;5038569;28;20497;-60
2023/04/09 10:41:43;;;;;;;8.47;6.17;;;22.40;45.60;;;;;;5038720;28;20032;-60
2023/04/09 10:44:40;;;;;;;7.90;5.15;;;22.30;45.60;;;;;;5038346;28;20068;-61
2023/04/09 10:47:07;;;;;;;7.10;5.40;;;22.30;45.60;;;;;;5042885;28;20381;-61
2023/04/09 10:49:37;;;;;;;6.35;5.28;;;22.30;45.60;;;;;;5040073;28;20096;-60
2023/04/09 10:52:09;;;;;;;7.30;5.43;;;22.30;45.60;;;;;;5038629;28;20495;-61
2023/04/09 10:54:36;;;;;;;6.35;4.63;;;22.30;45.60;;;;;;5039798;28;20068;-60
2023/04/09 10:57:12;;;;;;;7.95;5.47;;;22.30;45.60;;;;;;5039565;28;20489;-60
2023/04/09 10:59:49;;;;;;;6.78;5.13;;;22.30;45.60;;;;;;5035113;28;20029;-60
2023/04/09 11:02:21;;;;;;;6.75;4.95;;;22.30;45.60;;;;;;5038224;28;20056;-61
2023/04/09 11:05:15;;;;;;;6.05;4.88;;;22.30;45.60;;;;;;5038645;28;20474;-62
2023/04/09 11:07:45;;;;;;;6.13;4.55;;;22.30;45.60;;;;;;5036282;28;20445;-61
2023/04/09 11:10:11;;;;;;;6.82;4.85;;;22.30;45.60;;;;;;5039049;28;20021;-61
2023/04/09 11:12:37;;;;;;;6.90;5.00;;;22.30;45.70;;;;;;5035892;28;20025;-61
2023/04/09 11:15:03;;;;;;;6.38;4.93;;;22.30;45.70;;;;;;5036654;28;20022;-61
2023/04/09 11:17:30;;;;;;;7.43;5.03;;;22.30;45.70;;;;;;5039086;28;20025;-61
2023/04/09 11:19:55;;;;;;;7.03;5.05;;;22.30;45.70;;;;;;5039413;28;20120;-61
2023/04/09 11:22:21;;;;;;;6.60;5.28;;;22.30;45.70;;;;;;5037948;28;20116;-61
2023/04/09 11:24:47;;;;;;;6.07;5.00;;;22.30;45.70;;;;;;5036875;28;20025;-61
2023/04/09 11:27:13;;;;;;;6.32;4.28;;;22.30;45.70;;;;;;5037507;28;20043;-61
2023/04/09 11:29:38;;;;;;;5.30;4.45;;;22.30;45.80;;;;;;5040680;28;20104;-62
2023/04/09 11:32:04;;;;;;;6.38;4.65;;;22.30;46.30;;;;;;5036417;28;20041;-62
2023/04/09 11:34:31;;;;;;;5.55;4.43;;;22.30;45.80;;;;;;5040285;28;20101;-63
2023/04/09 11:36:58;;;;;;;5.78;4.50;;;22.30;45.80;;;;;;5040900;28;20026;-63
2023/04/09 11:39:25;;;;;;;5.10;4.13;;;22.30;45.80;;;;;;5036154;28;20025;-63
2023/04/09 11:41:50;;;;;;;5.65;4.65;;;22.30;45.80;;;;;;5038525;28;20495;-63
2023/04/09 11:44:16;;;;;;;5.10;4.25;;;22.30;45.80;;;;;;5038247;28;20025;-61
2023/04/09 11:46:42;;;;;;;5.55;4.40;;;22.30;45.80;;;;;;5037368;28;20040;-60
2023/04/09 11:49:08;;;;;;;5.97;4.60;;;22.40;45.80;;;;;;5036577;28;20473;-60
2023/04/09 11:51:34;;;;;;;5.78;4.57;;;22.30;45.70;;;;;;5039167;28;20033;-59
2023/04/09 11:54:04;;;;;;;6.00;4.47;;;22.40;45.80;;;;;;5039685;28;20477;-60
2023/04/09 11:56:31;;;;;;;6.10;4.20;;;22.30;45.70;;;;;;5038377;28;20030;-60
2023/04/09 11:58:57;;;;;;;5.72;4.40;;;22.30;45.80;;;;;;5037204;28;20049;-60
2023/04/09 12:01:22;;;;;;;5.53;4.40;;;22.30;45.90;;;;;;5037939;28;20056;-61
2023/04/09 12:03:53;;;;;;;6.85;4.82;;;22.30;46.10;;;;;;5040039;28;20025;-60
2023/04/09 12:06:24;;;;;;;6.30;4.63;;;22.30;46.10;;;;;;5044759;28;20474;-60
2023/04/09 12:08:57;;;;;;;5.57;4.63;;;22.30;46.20;;;;;;5040012;28;20545;-61
2023/04/09 12:11:30;;;;;;;6.10;4.70;;;22.40;46.30;;;;;;5042829;28;20029;-60
2023/04/09 12:14:05;;;;;;;6.13;4.55;;;22.30;46.20;;;;;;5043720;28;20033;-60
2023/04/09 12:16:35;;;;;;;5.43;4.25;;;22.30;46.40;;;;;;5040898;28;20025;-60
2023/04/09 12:19:07;;;;;;;;;;;22.30;46.40;;;;;;5041735;28;20037;-60
2023/04/09 12:21:54;;;;;;;5.95;4.40;;;22.30;46.50;;;;;;5041801;28;19970;-61
2023/04/09 12:24:23;;;;;;;5.40;4.20;;;22.40;46.50;;;;;;5040114;28;20483;-60
2023/04/09 12:26:49;;;;;;;6.10;4.50;;;22.40;47.20;;;;;;5044739;28;20035;-60
2023/04/09 12:29:17;;;;;;;6.22;4.63;;;22.30;46.50;;;;;;5042078;28;20473;-60
2023/04/09 12:31:43;;;;;;;5.03;4.13;;;22.30;46.50;;;;;;5039978;28;20469;-61
2023/04/09 12:34:09;;;;;;;4.45;3.80;;;22.30;46.40;;;;;;5039283;28;20461;-61
2023/04/09 12:36:35;;;;;;;4.93;3.92;;;22.30;46.30;;;;;;5045563;28;20033;-61
2023/04/09 12:39:00;;;;;;;4.65;3.53;;;22.30;46.20;;;;;;5040793;28;20459;-60
2023/04/09 12:41:26;;;;;;;4.95;3.47;;;22.40;46.20;;;;;;5041773;28;20075;-61
2023/04/09 12:43:52;;;;;;;4.15;3.15;;;22.40;46.20;;;;;;5036500;28;20067;-63
2023/04/09 12:46:18;;;;;;;5.35;3.80;;;22.40;46.20;;;;;;5041476;28;20386;-61